createdAt,value
2022-10-05T00:01:53.176Z,100932.59
2022-10-05T00:04:23.899Z,100935.33
2022-10-05T00:07:14.544Z,100930.58
2022-10-05T00:09:42.236Z,100933.85
2022-10-05T00:12:17.683Z,100932.63
2022-10-05T00:14:46.353Z,100927.74
2022-10-05T00:17:24.895Z,100931.09
2022-10-05T00:19:53.976Z,100935.25
2022-10-05T00:22:23.468Z,100928.80
2022-10-05T00:24:55.053Z,100931.74
2022-10-05T00:27:24.844Z,100919.57
2022-10-05T00:29:53.743Z,100919.30
2022-10-05T00:32:21.356Z,100914.61
2022-10-05T00:34:48.863Z,100904.48
2022-10-05T00:37:16.453Z,100902.40
2022-10-05T00:39:44.348Z,100902.87
2022-10-05T00:42:40.313Z,100901.05
2022-10-05T00:45:38.039Z,100900.40
2022-10-05T00:48:27.026Z,100911.52
2022-10-05T00:51:52.884Z,100920.92
2022-10-05T00:54:32.473Z,100929.16
2022-10-05T00:57:20.265Z,100934.77
2022-10-05T01:00:12.503Z,100933.55
2022-10-05T01:02:50.236Z,100932.25
2022-10-05T01:05:47.170Z,100932.65
2022-10-05T01:08:41.459Z,100932.48
2022-10-05T01:11:14.640Z,100925.02
2022-10-05T01:13:42.173Z,100916.15
2022-10-05T01:16:30.106Z,100913.38
2022-10-05T01:18:57.564Z,100917.18
2022-10-05T01:21:26.302Z,100922.67
2022-10-05T01:24:21.641Z,100922.90
2022-10-05T01:26:58.178Z,100920.93
2022-10-05T01:29:37.651Z,100923.06
2022-10-05T01:32:14.265Z,100922.44
2022-10-05T01:35:08.015Z,100919.05
2022-10-05T01:37:41.458Z,100924.38
2022-10-05T01:40:25.127Z,100920.42
2022-10-05T01:42:55.958Z,100915.11
2022-10-05T01:45:33.665Z,100915.67
2022-10-05T01:48:09.640Z,100914.34
2022-10-05T01:50:46.850Z,100902.48
2022-10-05T01:53:18.250Z,100900.98
2022-10-05T01:56:02.386Z,100910.43
2022-10-05T01:58:32.683Z,100922.27
2022-10-05T02:01:05.091Z,100934.48
2022-10-05T02:03:38.596Z,100936.17
2022-10-05T02:06:15.722Z,100933.70
2022-10-05T02:09:21.861Z,100939.10
2022-10-05T02:11:54.555Z,100936.53
2022-10-05T02:14:28.677Z,100933.16
2022-10-05T02:16:56.163Z,100922.27
2022-10-05T02:19:35.599Z,100920.81
2022-10-05T02:22:08.015Z,100916.89
2022-10-05T02:24:43.499Z,100908.04
2022-10-05T02:27:11.478Z,100898.75
2022-10-05T02:29:40.225Z,100893.13
2022-10-05T02:32:12.876Z,100879.93
2022-10-05T02:34:41.660Z,100870.87
2022-10-05T02:37:54.237Z,100868.27
2022-10-05T02:40:35.479Z,100875.63
2022-10-05T02:43:22.932Z,100880.27
2022-10-05T02:46:03.216Z,100883.81
2022-10-05T02:48:49.012Z,100884.44
2022-10-05T02:51:23.210Z,100877.94
2022-10-05T02:54:00.450Z,100883.89
2022-10-05T02:56:43.221Z,100895.64
2022-10-05T02:59:13.258Z,100907.21
2022-10-05T03:01:49.179Z,100902.95
2022-10-05T03:04:25.929Z,100888.70
2022-10-05T03:07:17.140Z,100889.11
2022-10-05T03:10:01.059Z,100910.02
2022-10-05T03:12:39.586Z,100909.20
2022-10-05T03:15:10.296Z,100909.86
2022-10-05T03:17:46.559Z,100908.70
2022-10-05T03:20:33.968Z,100915.58
2022-10-05T03:23:02.410Z,100910.98
2022-10-05T03:25:40.127Z,100908.27
2022-10-05T03:28:10.488Z,100907.73
2022-10-05T03:30:42.639Z,100912.15
2022-10-05T03:33:29.068Z,100919.85
2022-10-05T03:35:58.038Z,100919.16
2022-10-05T03:38:34.797Z,100915.67
2022-10-05T03:41:12.547Z,100923.42
2022-10-05T03:44:08.189Z,100917.60
2022-10-05T03:46:41.956Z,100904.23
2022-10-05T03:49:11.524Z,100900.59
2022-10-05T03:51:41.300Z,100887.79
2022-10-05T03:54:26.626Z,100882.65
2022-10-05T03:57:01.649Z,100874.31
2022-10-05T03:59:32.911Z,100878.80
2022-10-05T04:02:02.808Z,100887.42
2022-10-05T04:04:38.993Z,100888.27
2022-10-05T04:07:06.575Z,100887.80
2022-10-05T04:09:40.795Z,100889.91
2022-10-05T04:12:11.280Z,100881.04
2022-10-05T04:14:41.705Z,100884.58
2022-10-05T04:17:33.379Z,100874.61
2022-10-05T04:20:04.535Z,100868.79
2022-10-05T04:22:46.205Z,100861.68
2022-10-05T04:25:26.595Z,100873.99
2022-10-05T04:28:27.061Z,100884.81
2022-10-05T04:30:57.149Z,100880.27
2022-10-05T04:33:24.852Z,100885.57
2022-10-05T04:35:56.818Z,100883.72
2022-10-05T04:38:50.029Z,100892.65
2022-10-05T04:41:42.385Z,100898.91
2022-10-05T04:44:23.442Z,100903.34
2022-10-05T04:47:27.846Z,100901.16
2022-10-05T04:50:03.933Z,100902.25
2022-10-05T04:52:34.950Z,100902.61
2022-10-05T04:55:10.127Z,100904.40
2022-10-05T04:58:00.299Z,100897.90
2022-10-05T05:00:38.637Z,100893.55
2022-10-05T05:03:32.499Z,100897.20
2022-10-05T05:06:16.915Z,100904.73
2022-10-05T05:09:03.600Z,100906.91
2022-10-05T05:11:35.093Z,100903.84
2022-10-05T05:14:34.599Z,100905.81
2022-10-05T05:17:20.968Z,100914.65
2022-10-05T05:20:05.798Z,100922.85
2022-10-05T05:22:39.266Z,100928.41
2022-10-05T05:25:36.009Z,100927.02
2022-10-05T05:28:06.645Z,100927.50
2022-10-05T05:30:54.581Z,100922.40
2022-10-05T05:33:25.195Z,100923.54
2022-10-05T05:36:27.999Z,100917.30
2022-10-05T05:39:06.599Z,100916.08
2022-10-05T05:41:38.681Z,100920.36
2022-10-05T05:44:20.732Z,100923.06
2022-10-05T05:47:15.164Z,100924.48
2022-10-05T05:50:08.211Z,100922.06
2022-10-05T05:52:45.921Z,100906.13
2022-10-05T05:55:35.540Z,100903.42
2022-10-05T05:58:11.105Z,100905.02
2022-10-05T06:00:43.335Z,100909.81
2022-10-05T06:03:38.654Z,100921.33
2022-10-05T06:06:10.526Z,100925.08
2022-10-05T06:08:42.981Z,100923.52
2022-10-05T06:11:53.921Z,100924.23
2022-10-05T06:14:32.531Z,100921.85
2022-10-05T06:17:06.674Z,100921.55
2022-10-05T06:19:34.643Z,100916.17
2022-10-05T06:22:14.539Z,100916.98
2022-10-05T06:25:06.922Z,100917.09
2022-10-05T06:27:34.573Z,100915.63
2022-10-05T06:30:13.451Z,100906.91
2022-10-05T06:32:49.935Z,100904.44
2022-10-05T06:35:38.633Z,100903.66
2022-10-05T06:38:12.231Z,100914.88
2022-10-05T06:41:11.071Z,100910.80
2022-10-05T06:44:03.914Z,100904.85
2022-10-05T06:46:51.101Z,100902.08
2022-10-05T06:49:49.070Z,100912.61
2022-10-05T06:52:49.358Z,100913.50
2022-10-05T06:55:24.067Z,100918.81
2022-10-05T06:58:07.769Z,100921.59
2022-10-05T07:00:40.307Z,100915.52
2022-10-05T07:03:24.005Z,100928.06
2022-10-05T07:05:59.890Z,100934.34
2022-10-05T07:08:40.357Z,100936.28
2022-10-05T07:11:24.722Z,100935.03
2022-10-05T07:14:16.304Z,100931.02
2022-10-05T07:16:59.783Z,100923.13
2022-10-05T07:19:52.477Z,100918.74
2022-10-05T07:22:31.754Z,100916.42
2022-10-05T07:25:45.048Z,100905.70
2022-10-05T07:28:21.790Z,100908.30
2022-10-05T07:30:58.935Z,100911.62
2022-10-05T07:33:46.463Z,100913.02
2022-10-05T07:36:53.713Z,100914.53
2022-10-05T07:39:58.526Z,100912.85
2022-10-05T07:42:48.907Z,100902.73
2022-10-05T07:45:29.230Z,100897.33
2022-10-05T07:47:59.726Z,100892.51
2022-10-05T07:50:49.392Z,100894.17
2022-10-05T07:53:22.616Z,100896.61
2022-10-05T07:55:52.453Z,100886.84
2022-10-05T07:58:30.134Z,100891.29
2022-10-05T08:01:26.277Z,100885.30
2022-10-05T08:03:57.195Z,100888.58
2022-10-05T08:06:31.573Z,100889.27
2022-10-05T08:09:04.670Z,100888.83
2022-10-05T08:12:01.738Z,100888.19
2022-10-05T08:15:03.858Z,100888.99
2022-10-05T08:17:54.019Z,100873.42
2022-10-05T08:20:45.105Z,100876.80
2022-10-05T08:23:17.178Z,100877.58
2022-10-05T08:25:49.208Z,100879.89
2022-10-05T08:28:39.607Z,100874.98
2022-10-05T08:31:32.221Z,100871.45
2022-10-05T08:34:22.123Z,100872.08
2022-10-05T08:37:01.774Z,100868.92
2022-10-05T08:40:01.391Z,100868.54
2022-10-05T08:42:47.333Z,100869.76
2022-10-05T08:45:33.608Z,100872.57
2022-10-05T08:48:19.507Z,100870.06
2022-10-05T08:50:59.083Z,100873.78
2022-10-05T08:53:26.588Z,100873.08
2022-10-05T08:56:28.633Z,100871.92
2022-10-05T08:59:15.342Z,100874.52
2022-10-05T09:01:55.509Z,100876.33
2022-10-05T09:04:59.635Z,100874.46
2022-10-05T09:08:04.838Z,100874.48
2022-10-05T09:10:51.019Z,100869.72
2022-10-05T09:13:58.778Z,100871.91
2022-10-05T09:16:43.412Z,100867.40
2022-10-05T09:19:23.016Z,100864.27
2022-10-05T09:21:57.896Z,100861.67
2022-10-05T09:24:36.511Z,100854.97
2022-10-05T09:27:10.633Z,100852.05
2022-10-05T09:30:00.158Z,100846.14
2022-10-05T09:32:58.651Z,100843.80
2022-10-05T09:35:58.176Z,100838.58
2022-10-05T09:38:39.864Z,100831.08
2022-10-05T09:41:22.000Z,100830.45
2022-10-05T09:44:11.095Z,100837.20
2022-10-05T09:47:24.092Z,100839.21
2022-10-05T09:50:07.021Z,100828.51
2022-10-05T09:52:52.797Z,100835.06
2022-10-05T09:55:51.269Z,100843.35
2022-10-05T09:58:37.015Z,100854.30
2022-10-05T10:01:32.656Z,100840.54
2022-10-05T10:04:24.706Z,100850.23
2022-10-05T10:06:55.234Z,100848.27
2022-10-05T10:09:41.693Z,100851.23
2022-10-05T10:12:09.171Z,100858.74
2022-10-05T10:15:10.973Z,100863.73
2022-10-05T10:17:53.798Z,100862.11
2022-10-05T10:20:45.024Z,100853.32
2022-10-05T10:23:15.509Z,100856.88
2022-10-05T10:26:01.956Z,100848.84
2022-10-05T10:28:39.787Z,100849.17
2022-10-05T10:31:33.743Z,100856.91
2022-10-05T10:34:44.117Z,100862.35
2022-10-05T10:37:21.936Z,100854.07
2022-10-05T10:40:14.126Z,100848.16
2022-10-05T10:42:59.145Z,100848.78
2022-10-05T10:46:06.079Z,100845.06
2022-10-05T10:48:50.031Z,100832.81
2022-10-05T10:51:25.982Z,100817.39
2022-10-05T10:54:21.971Z,100807.17
2022-10-05T10:56:58.253Z,100793.41
2022-10-05T10:59:50.121Z,100794.38
2022-10-05T11:02:42.415Z,100790.73
2022-10-05T11:05:20.015Z,100784.90
2022-10-05T11:08:09.793Z,100771.27
2022-10-05T11:11:00.732Z,100777.69
2022-10-05T11:13:31.111Z,100780.67
2022-10-05T11:16:12.518Z,100773.16
2022-10-05T11:19:07.611Z,100777.59
2022-10-05T11:21:43.384Z,100778.65
2022-10-05T11:24:26.418Z,100772.64
2022-10-05T11:26:56.975Z,100762.44
2022-10-05T11:29:41.396Z,100767.48
2022-10-05T11:32:47.333Z,100766.71
2022-10-05T11:35:38.323Z,100770.00
2022-10-05T11:38:32.607Z,100774.29
2022-10-05T11:41:24.148Z,100766.52
2022-10-05T11:44:10.373Z,100762.92
2022-10-05T11:47:03.201Z,100766.85
2022-10-05T11:49:35.850Z,100768.18
2022-10-05T11:52:30.785Z,100768.88
2022-10-05T11:55:19.571Z,100762.49
2022-10-05T11:57:57.102Z,100765.98
2022-10-05T12:00:40.497Z,100763.81
2022-10-05T12:03:33.539Z,100765.66
2022-10-05T12:06:38.231Z,100769.29
2022-10-05T12:09:30.732Z,100765.28
2022-10-05T12:12:22.183Z,100760.86
2022-10-05T12:14:54.276Z,100765.77
2022-10-05T12:17:46.532Z,100763.29
2022-10-05T12:20:20.951Z,100759.04
2022-10-05T12:22:59.015Z,100757.15
2022-10-05T12:25:39.118Z,100759.19
2022-10-05T12:28:11.128Z,100758.90
2022-10-05T12:31:22.456Z,100754.52
2022-10-05T12:34:12.025Z,100750.99
2022-10-05T12:37:04.110Z,100745.69
2022-10-05T12:39:57.021Z,100747.91
2022-10-05T12:42:40.869Z,100750.21
2022-10-05T12:45:21.362Z,100749.70
2022-10-05T12:47:58.061Z,100755.11
2022-10-05T12:50:28.424Z,100750.83
2022-10-05T12:52:59.428Z,100758.27
2022-10-05T12:55:54.513Z,100760.92
2022-10-05T12:58:45.661Z,100754.40
2022-10-05T13:01:25.277Z,100753.86
2022-10-05T13:03:55.182Z,100755.52
2022-10-05T13:06:28.446Z,100757.17
2022-10-05T13:08:58.718Z,100758.16
2022-10-05T13:11:36.110Z,100759.54
2022-10-05T13:14:42.792Z,100755.04
2022-10-05T13:17:16.900Z,100751.88
2022-10-05T13:19:47.093Z,100746.38
2022-10-05T13:22:44.176Z,100744.85
2022-10-05T13:25:27.188Z,100741.57
2022-10-05T13:28:17.797Z,100738.98
2022-10-05T13:30:51.739Z,100736.74
2022-10-05T13:33:27.280Z,100738.17
2022-10-05T13:36:30.024Z,100745.78
2022-10-05T13:38:59.575Z,100749.46
2022-10-05T13:41:54.510Z,100744.81
2022-10-05T13:44:34.008Z,100741.79
2022-10-05T13:47:09.211Z,100738.91
2022-10-05T13:49:42.720Z,100742.36
2022-10-05T13:52:19.726Z,100740.13
2022-10-05T13:55:12.282Z,100740.89
2022-10-05T13:58:02.455Z,100741.66
2022-10-05T14:00:30.463Z,100744.80
2022-10-05T14:02:58.704Z,100744.50
2022-10-05T14:05:30.625Z,100747.08
2022-10-05T14:08:04.285Z,100742.52
2022-10-05T14:10:39.765Z,100739.27
2022-10-05T14:13:22.418Z,100737.18
2022-10-05T14:16:01.752Z,100732.31
2022-10-05T14:18:32.719Z,100724.13
2022-10-05T14:21:17.297Z,100722.29
2022-10-05T14:23:45.051Z,100718.08
2022-10-05T14:26:25.772Z,100719.70
2022-10-05T14:28:58.622Z,100718.77
2022-10-05T14:31:36.868Z,100718.81
2022-10-05T14:34:31.699Z,100706.61
2022-10-05T14:37:19.056Z,100711.72
2022-10-05T14:39:48.795Z,100710.70
2022-10-05T14:42:18.930Z,100705.52
2022-10-05T14:45:00.011Z,100707.52
2022-10-05T14:47:30.169Z,100707.75
2022-10-05T14:50:13.919Z,100703.19
2022-10-05T14:52:46.412Z,100709.15
2022-10-05T14:55:38.892Z,100713.27
2022-10-05T14:58:23.887Z,100709.28
2022-10-05T15:00:58.822Z,100710.12
2022-10-05T15:03:41.614Z,100711.27
2022-10-05T15:06:16.258Z,100703.10
2022-10-05T15:09:02.320Z,100706.23
2022-10-05T15:11:38.702Z,100705.19
2022-10-05T15:14:13.756Z,100702.30
2022-10-05T15:16:42.211Z,100701.27
2022-10-05T15:19:24.961Z,100700.88
2022-10-05T15:22:07.500Z,100695.86
2022-10-05T15:24:43.746Z,100693.20
2022-10-05T15:27:36.406Z,100691.50
2022-10-05T15:30:17.942Z,100681.81
2022-10-05T15:32:49.809Z,100682.75
2022-10-05T15:35:36.050Z,100683.65
2022-10-05T15:38:26.582Z,100687.51
2022-10-05T15:40:59.100Z,100682.17
2022-10-05T15:43:33.481Z,100679.00
2022-10-05T15:46:12.428Z,100682.30
2022-10-05T15:49:14.594Z,100671.05
2022-10-05T15:52:03.634Z,100672.93
2022-10-05T15:54:49.959Z,100662.69
2022-10-05T15:57:42.521Z,100660.77
2022-10-05T16:00:17.273Z,100655.30
2022-10-05T16:03:33.120Z,100670.20
2022-10-05T16:06:24.392Z,100678.86
2022-10-05T16:09:23.211Z,100687.54
2022-10-05T16:12:06.916Z,100686.11
2022-10-05T16:14:54.592Z,100681.73
2022-10-05T16:17:33.787Z,100687.38
2022-10-05T16:20:16.734Z,100686.09
2022-10-05T16:23:21.593Z,100668.17
2022-10-05T16:26:02.680Z,100651.16
2022-10-05T16:28:42.701Z,100659.30
2022-10-05T16:31:18.821Z,100666.29
2022-10-05T16:33:54.629Z,100670.15
2022-10-05T16:36:26.119Z,100660.33
2022-10-05T16:39:00.184Z,100667.20
2022-10-05T16:42:19.128Z,100665.77
2022-10-05T16:45:18.452Z,100663.22
2022-10-05T16:48:05.179Z,100658.61
2022-10-05T16:50:48.893Z,100662.60
2022-10-05T16:53:23.343Z,100656.16
2022-10-05T16:56:01.147Z,100651.86
2022-10-05T16:58:54.664Z,100647.71
2022-10-05T17:01:45.949Z,100649.77
2022-10-05T17:04:16.323Z,100647.42
2022-10-05T17:07:02.493Z,100647.09
2022-10-05T17:09:44.708Z,100650.18
2022-10-05T17:12:34.224Z,100646.79
2022-10-05T17:15:08.868Z,100651.30
2022-10-05T17:17:58.390Z,100656.06
2022-10-05T17:20:32.052Z,100651.42
2022-10-05T17:23:04.362Z,100647.67
2022-10-05T17:25:54.141Z,100640.75
2022-10-05T17:28:23.263Z,100640.61
2022-10-05T17:31:11.250Z,100639.87
2022-10-05T17:34:03.518Z,100642.04
2022-10-05T17:36:43.297Z,100639.81
2022-10-05T17:39:50.159Z,100641.55
2022-10-05T17:42:26.748Z,100645.30
2022-10-05T17:44:55.208Z,100646.91
2022-10-05T17:47:56.216Z,100648.33
2022-10-05T17:51:02.871Z,100639.04
2022-10-05T17:54:02.090Z,100635.21
2022-10-05T17:56:31.081Z,100631.98
2022-10-05T17:59:00.252Z,100630.17
2022-10-05T18:01:38.467Z,100630.33
2022-10-05T18:04:11.873Z,100631.57
2022-10-05T18:07:00.220Z,100632.41
2022-10-05T18:09:30.684Z,100628.09
2022-10-05T18:12:16.477Z,100626.09
2022-10-05T18:15:00.522Z,100624.77
2022-10-05T18:17:46.268Z,100622.46
2022-10-05T18:20:32.603Z,100614.02
2022-10-05T18:23:01.180Z,100618.75
2022-10-05T18:25:43.804Z,100614.11
2022-10-05T18:28:14.075Z,100610.16
2022-10-05T18:31:24.774Z,100613.95
2022-10-05T18:34:14.220Z,100615.33
2022-10-05T18:36:48.202Z,100619.08
2022-10-05T18:39:27.634Z,100624.79
2022-10-05T18:42:07.334Z,100621.27
2022-10-05T18:44:46.348Z,100623.44
2022-10-05T18:47:42.079Z,100620.90
2022-10-05T18:50:23.061Z,100619.70
2022-10-05T18:52:53.512Z,100623.85
2022-10-05T18:55:44.925Z,100619.34
2022-10-05T18:58:37.077Z,100620.20
2022-10-05T19:01:41.662Z,100618.43
2022-10-05T19:04:14.070Z,100618.11
2022-10-05T19:06:50.406Z,100617.05
2022-10-05T19:09:43.172Z,100623.45
2022-10-05T19:12:35.142Z,100622.10
2022-10-05T19:15:27.651Z,100623.69
2022-10-05T19:17:58.740Z,100623.00
2022-10-05T19:20:32.412Z,100617.82
2022-10-05T19:23:18.611Z,100612.69
2022-10-05T19:26:03.240Z,100603.99
2022-10-05T19:28:55.843Z,100616.42
2022-10-05T19:31:35.089Z,100618.20
2022-10-05T19:34:40.977Z,100616.34
2022-10-05T19:37:13.056Z,100611.22
2022-10-05T19:39:55.112Z,100611.14
2022-10-05T19:42:38.945Z,100610.06
2022-10-05T19:45:22.859Z,100607.70
2022-10-05T19:48:26.718Z,100614.77
2022-10-05T19:50:58.433Z,100608.98
2022-10-05T19:53:30.655Z,100607.79
2022-10-05T19:56:12.727Z,100611.94
2022-10-05T19:58:40.248Z,100613.59
2022-10-05T20:01:07.893Z,100610.46
2022-10-05T20:03:37.345Z,100615.30
2022-10-05T20:06:06.525Z,100617.76
2022-10-05T20:08:59.804Z,100616.77
2022-10-05T20:11:28.034Z,100617.48
2022-10-05T20:13:55.628Z,100624.64
2022-10-05T20:16:44.952Z,100621.28
2022-10-05T20:19:51.192Z,100621.65
2022-10-05T20:22:46.134Z,100627.50
2022-10-05T20:25:19.607Z,100629.29
2022-10-05T20:27:50.657Z,100634.95
2022-10-05T20:30:20.115Z,100641.18
2022-10-05T20:32:48.703Z,100645.39
2022-10-05T20:35:18.118Z,100644.30
2022-10-05T20:37:45.658Z,100648.96
2022-10-05T20:40:14.824Z,100647.69
2022-10-05T20:42:42.364Z,100646.31
2022-10-05T20:45:11.144Z,100638.98
2022-10-05T20:47:38.985Z,100646.86
2022-10-05T20:50:09.032Z,100648.60
2022-10-05T20:52:39.666Z,100643.38
2022-10-05T20:55:09.353Z,100646.39
2022-10-05T20:57:41.521Z,100646.30
2022-10-05T21:00:12.785Z,100645.17
2022-10-05T21:02:40.357Z,100650.72
2022-10-05T21:05:08.651Z,100648.52
2022-10-05T21:07:36.416Z,100649.27
2022-10-05T21:10:04.546Z,100650.00
2022-10-05T21:12:33.970Z,100650.68
2022-10-05T21:15:04.693Z,100657.52
2022-10-05T21:17:34.611Z,100661.88
2022-10-05T21:20:02.152Z,100657.91
2022-10-05T21:22:29.718Z,100662.88
2022-10-05T21:24:58.415Z,100662.72
2022-10-05T21:27:26.130Z,100666.67
2022-10-05T21:29:53.662Z,100671.25
2022-10-05T21:32:21.206Z,100668.68
2022-10-05T21:34:48.772Z,100667.45
2022-10-05T21:37:16.492Z,100669.88
2022-10-05T21:39:44.291Z,100672.72
2022-10-05T21:42:11.917Z,100672.59
2022-10-05T21:44:39.572Z,100667.97
2022-10-05T21:47:07.047Z,100670.77
2022-10-05T21:49:34.716Z,100671.10
2022-10-05T21:52:02.325Z,100673.08
2022-10-05T21:54:30.499Z,100670.23
2022-10-05T21:56:58.859Z,100676.28
2022-10-05T21:59:28.077Z,100677.48
2022-10-05T22:01:55.580Z,100672.85
2022-10-05T22:04:23.134Z,100675.61
2022-10-05T22:06:51.219Z,100677.60
2022-10-05T22:09:18.795Z,100675.30
2022-10-05T22:11:47.922Z,100668.39
2022-10-05T22:14:15.782Z,100681.86
2022-10-05T22:16:43.726Z,100679.44
2022-10-05T22:19:14.453Z,100678.66
2022-10-05T22:21:42.036Z,100679.15
2022-10-05T22:24:11.432Z,100681.79
2022-10-05T22:26:39.571Z,100683.06
2022-10-05T22:29:07.305Z,100684.52
2022-10-05T22:31:35.131Z,100679.11
2022-10-05T22:34:02.835Z,100681.63
2022-10-05T22:36:30.395Z,100684.98
2022-10-05T22:38:58.322Z,100684.02
2022-10-05T22:41:25.897Z,100681.48
2022-10-05T22:43:53.495Z,100682.58
2022-10-05T22:46:21.161Z,100685.76
2022-10-05T22:48:48.883Z,100686.15
2022-10-05T22:51:16.670Z,100686.40
2022-10-05T22:53:44.261Z,100684.52
2022-10-05T22:56:13.097Z,100688.84
2022-10-05T22:58:41.247Z,100692.21
2022-10-05T23:01:10.811Z,100692.84
2022-10-05T23:03:38.513Z,100699.29
2022-10-05T23:06:11.041Z,100698.64
2022-10-05T23:08:38.992Z,100696.84
2022-10-05T23:11:14.282Z,100696.50
2022-10-05T23:13:41.806Z,100699.83
2022-10-05T23:16:17.434Z,100703.69
2022-10-05T23:18:45.343Z,100703.91
2022-10-05T23:21:12.862Z,100708.65
2022-10-05T23:23:41.734Z,100707.93
2022-10-05T23:26:10.639Z,100712.27
2022-10-05T23:28:43.126Z,100709.61
2022-10-05T23:31:10.802Z,100716.02
2022-10-05T23:33:38.541Z,100715.58
2022-10-05T23:36:26.034Z,100714.67
2022-10-05T23:38:54.088Z,100714.20
2022-10-05T23:41:21.801Z,100717.56
2022-10-05T23:43:49.498Z,100714.67
2022-10-05T23:46:17.793Z,100717.33
2022-10-05T23:48:45.430Z,100711.77
2022-10-05T23:51:13.193Z,100712.16
2022-10-05T23:53:40.714Z,100710.56
2022-10-05T23:56:08.280Z,100711.20
2022-10-05T23:58:35.966Z,100708.36
